sensor_id;sensor_type;location;lat;lon;timestamp;temperature;humidity
70246;SHT30;57637;49.272;8.590;2023-04-06T00:00:49;0.88;75.95
70246;SHT30;57637;49.272;8.590;2023-04-06T00:03:16;0.84;76.03
70246;SHT30;57637;49.272;8.590;2023-04-06T00:05:41;0.94;76.27
70246;SHT30;57637;49.272;8.590;2023-04-06T00:08:07;1.09;75.55
70246;SHT30;57637;49.272;8.590;2023-04-06T00:10:32;1.06;75.27
70246;SHT30;57637;49.272;8.590;2023-04-06T00:12:58;1.14;75.19
70246;SHT30;57637;49.272;8.590;2023-04-06T00:15:25;1.43;74.00
70246;SHT30;57637;49.272;8.590;2023-04-06T00:17:51;1.58;73.20
70246;SHT30;57637;49.272;8.590;2023-04-06T00:20:19;1.67;72.50
70246;SHT30;57637;49.272;8.590;2023-04-06T00:22:44;1.66;72.79
70246;SHT30;57637;49.272;8.590;2023-04-06T00:25:10;1.50;72.85
70246;SHT30;57637;49.272;8.590;2023-04-06T00:27:36;1.45;73.49
70246;SHT30;57637;49.272;8.590;2023-04-06T00:30:02;1.31;74.70
70246;SHT30;57637;49.272;8.590;2023-04-06T00:32:31;1.12;75.85
70246;SHT30;57637;49.272;8.590;2023-04-06T00:34:58;0.97;76.74
70246;SHT30;57637;49.272;8.590;2023-04-06T00:37:23;0.84;77.20
70246;SHT30;57637;49.272;8.590;2023-04-06T00:39:49;0.74;77.63
70246;SHT30;57637;49.272;8.590;2023-04-06T00:42:16;0.68;77.10
70246;SHT30;57637;49.272;8.590;2023-04-06T00:44:50;0.64;77.49
70246;SHT30;57637;49.272;8.590;2023-04-06T00:47:15;0.57;77.62
70246;SHT30;57637;49.272;8.590;2023-04-06T00:49:41;0.49;77.83
70246;SHT30;57637;49.272;8.590;2023-04-06T00:52:06;0.43;77.92
70246;SHT30;57637;49.272;8.590;2023-04-06T00:54:32;0.36;77.90
70246;SHT30;57637;49.272;8.590;2023-04-06T00:56:58;0.34;78.00
70246;SHT30;57637;49.272;8.590;2023-04-06T00:59:23;0.34;78.30
70246;SHT30;57637;49.272;8.590;2023-04-06T01:01:49;0.27;78.84
70246;SHT30;57637;49.272;8.590;2023-04-06T01:04:15;0.27;78.78
70246;SHT30;57637;49.272;8.590;2023-04-06T01:06:40;0.27;78.50
70246;SHT30;57637;49.272;8.590;2023-04-06T01:09:05;0.53;78.50
70246;SHT30;57637;49.272;8.590;2023-04-06T01:11:31;0.58;77.49
70246;SHT30;57637;49.272;8.590;2023-04-06T01:13:57;0.61;77.46
70246;SHT30;57637;49.272;8.590;2023-04-06T01:16:22;0.77;77.38
70246;SHT30;57637;49.272;8.590;2023-04-06T01:18:49;0.94;76.59
70246;SHT30;57637;49.272;8.590;2023-04-06T01:21:15;0.99;76.34
70246;SHT30;57637;49.272;8.590;2023-04-06T01:23:44;0.91;76.26
70246;SHT30;57637;49.272;8.590;2023-04-06T01:26:11;0.83;76.66
70246;SHT30;57637;49.272;8.590;2023-04-06T01:28:37;0.74;77.02
70246;SHT30;57637;49.272;8.590;2023-04-06T01:31:03;0.64;77.18
70246;SHT30;57637;49.272;8.590;2023-04-06T01:33:29;0.56;77.69
70246;SHT30;57637;49.272;8.590;2023-04-06T01:35:55;0.43;78.14
70246;SHT30;57637;49.272;8.590;2023-04-06T01:38:20;0.33;78.35
70246;SHT30;57637;49.272;8.590;2023-04-06T01:40:46;0.30;78.59
70246;SHT30;57637;49.272;8.590;2023-04-06T01:43:11;0.22;78.78
70246;SHT30;57637;49.272;8.590;2023-04-06T01:45:37;0.17;78.69
70246;SHT30;57637;49.272;8.590;2023-04-06T01:48:03;0.17;78.40
70246;SHT30;57637;49.272;8.590;2023-04-06T01:50:28;0.12;78.65
70246;SHT30;57637;49.272;8.590;2023-04-06T01:52:54;0.03;78.97
70246;SHT30;57637;49.272;8.590;2023-04-06T01:55:20;-0.01;79.44
70246;SHT30;57637;49.272;8.590;2023-04-06T01:57:45;-0.09;79.63
70246;SHT30;57637;49.272;8.590;2023-04-06T02:00:11;-0.14;79.58
70246;SHT30;57637;49.272;8.590;2023-04-06T02:02:37;-0.12;79.51
70246;SHT30;57637;49.272;8.590;2023-04-06T02:05:02;-0.14;79.73
70246;SHT30;57637;49.272;8.590;2023-04-06T02:07:28;-0.18;79.79
70246;SHT30;57637;49.272;8.590;2023-04-06T02:09:54;-0.14;79.79
70246;SHT30;57637;49.272;8.590;2023-04-06T02:12:20;-0.22;79.68
70246;SHT30;57637;49.272;8.590;2023-04-06T02:14:46;-0.26;79.67
70246;SHT30;57637;49.272;8.590;2023-04-06T02:17:14;-0.28;79.70
70246;SHT30;57637;49.272;8.590;2023-04-06T02:19:40;-0.32;80.32
70246;SHT30;57637;49.272;8.590;2023-04-06T02:22:05;-0.35;79.93
70246;SHT30;57637;49.272;8.590;2023-04-06T02:24:34;-0.32;80.06
70246;SHT30;57637;49.272;8.590;2023-04-06T02:26:59;-0.36;80.25
70246;SHT30;57637;49.272;8.590;2023-04-06T02:29:25;-0.38;80.42
70246;SHT30;57637;49.272;8.590;2023-04-06T02:31:50;-0.39;80.13
70246;SHT30;57637;49.272;8.590;2023-04-06T02:34:16;-0.45;80.49
70246;SHT30;57637;49.272;8.590;2023-04-06T02:36:45;-0.43;80.41
70246;SHT30;57637;49.272;8.590;2023-04-06T02:39:11;-0.42;80.47
70246;SHT30;57637;49.272;8.590;2023-04-06T02:41:37;-0.43;80.64
70246;SHT30;57637;49.272;8.590;2023-04-06T02:44:03;-0.36;80.83
70246;SHT30;57637;49.272;8.590;2023-04-06T02:46:28;-0.33;80.76
70246;SHT30;57637;49.272;8.590;2023-04-06T02:48:54;-0.25;80.63
70246;SHT30;57637;49.272;8.590;2023-04-06T02:51:19;-0.28;80.48
70246;SHT30;57637;49.272;8.590;2023-04-06T02:53:45;-0.19;80.47
70246;SHT30;57637;49.272;8.590;2023-04-06T02:56:11;-0.21;80.46
70246;SHT30;57637;49.272;8.590;2023-04-06T02:58:36;-0.29;80.87
70246;SHT30;57637;49.272;8.590;2023-04-06T03:01:02;-0.35;80.80
70246;SHT30;57637;49.272;8.590;2023-04-06T03:03:27;-0.52;80.97
70246;SHT30;57637;49.272;8.590;2023-04-06T03:05:53;-0.56;81.39
70246;SHT30;57637;49.272;8.590;2023-04-06T03:08:19;-0.60;81.09
70246;SHT30;57637;49.272;8.590;2023-04-06T03:10:45;-0.69;81.39
70246;SHT30;57637;49.272;8.590;2023-04-06T03:13:10;-0.84;82.19
70246;SHT30;57637;49.272;8.590;2023-04-06T03:15:36;-0.87;82.67
70246;SHT30;57637;49.272;8.590;2023-04-06T03:18:01;-0.80;82.79
70246;SHT30;57637;49.272;8.590;2023-04-06T03:20:26;-0.77;82.67
70246;SHT30;57637;49.272;8.590;2023-04-06T03:22:52;-0.77;82.42
70246;SHT30;57637;49.272;8.590;2023-04-06T03:25:17;-0.72;82.35
70246;SHT30;57637;49.272;8.590;2023-04-06T03:27:43;-0.66;82.21
70246;SHT30;57637;49.272;8.590;2023-04-06T03:30:08;-0.65;82.12
70246;SHT30;57637;49.272;8.590;2023-04-06T03:32:34;-0.63;81.95
70246;SHT30;57637;49.272;8.590;2023-04-06T03:34:59;-0.62;82.08
70246;SHT30;57637;49.272;8.590;2023-04-06T03:37:25;-0.65;82.05
70246;SHT30;57637;49.272;8.590;2023-04-06T03:39:51;-0.69;81.99
70246;SHT30;57637;49.272;8.590;2023-04-06T03:42:17;-0.79;82.25
70246;SHT30;57637;49.272;8.590;2023-04-06T03:44:42;-0.90;82.76
70246;SHT30;57637;49.272;8.590;2023-04-06T03:47:07;-0.93;83.08
70246;SHT30;57637;49.272;8.590;2023-04-06T03:49:33;-0.96;83.36
70246;SHT30;57637;49.272;8.590;2023-04-06T03:51:58;-0.97;83.65
70246;SHT30;57637;49.272;8.590;2023-04-06T03:54:23;-1.00;83.32
70246;SHT30;57637;49.272;8.590;2023-04-06T03:56:49;-0.97;83.61
70246;SHT30;57637;49.272;8.590;2023-04-06T03:59:14;-0.97;83.71
70246;SHT30;57637;49.272;8.590;2023-04-06T04:01:40;-1.01;83.84
70246;SHT30;57637;49.272;8.590;2023-04-06T04:04:05;-1.10;83.76
70246;SHT30;57637;49.272;8.590;2023-04-06T04:06:33;-1.17;83.51
70246;SHT30;57637;49.272;8.590;2023-04-06T04:09:01;-1.18;83.43
70246;SHT30;57637;49.272;8.590;2023-04-06T04:11:27;-1.28;83.87
70246;SHT30;57637;49.272;8.590;2023-04-06T04:13:53;-1.35;84.04
70246;SHT30;57637;49.272;8.590;2023-04-06T04:16:18;-1.40;84.20
70246;SHT30;57637;49.272;8.590;2023-04-06T04:18:43;-1.44;84.26
70246;SHT30;57637;49.272;8.590;2023-04-06T04:21:10;-1.48;84.46
70246;SHT30;57637;49.272;8.590;2023-04-06T04:23:35;-1.51;84.43
70246;SHT30;57637;49.272;8.590;2023-04-06T04:26:01;-1.51;84.39
70246;SHT30;57637;49.272;8.590;2023-04-06T04:28:26;-1.51;84.48
70246;SHT30;57637;49.272;8.590;2023-04-06T04:30:52;-1.51;84.49
70246;SHT30;57637;49.272;8.590;2023-04-06T04:33:17;-1.56;84.39
70246;SHT30;57637;49.272;8.590;2023-04-06T04:35:42;-1.55;84.57
70246;SHT30;57637;49.272;8.590;2023-04-06T04:38:08;-1.59;84.59
70246;SHT30;57637;49.272;8.590;2023-04-06T04:40:33;-1.55;84.44
70246;SHT30;57637;49.272;8.590;2023-04-06T04:42:58;-1.52;84.59
70246;SHT30;57637;49.272;8.590;2023-04-06T04:45:24;-1.50;84.86
70246;SHT30;57637;49.272;8.590;2023-04-06T04:47:49;-1.51;84.83
70246;SHT30;57637;49.272;8.590;2023-04-06T04:50:15;-1.48;84.76
70246;SHT30;57637;49.272;8.590;2023-04-06T04:52:40;-1.50;84.56
70246;SHT30;57637;49.272;8.590;2023-04-06T04:55:06;-1.45;84.27
70246;SHT30;57637;49.272;8.590;2023-04-06T04:57:31;-1.43;84.26
70246;SHT30;57637;49.272;8.590;2023-04-06T04:59:57;-1.43;84.30
70246;SHT30;57637;49.272;8.590;2023-04-06T05:02:22;-1.38;84.43
70246;SHT30;57637;49.272;8.590;2023-04-06T05:04:48;-1.41;84.26
70246;SHT30;57637;49.272;8.590;2023-04-06T05:07:13;-1.34;84.19
70246;SHT30;57637;49.272;8.590;2023-04-06T05:09:40;-1.28;84.15
70246;SHT30;57637;49.272;8.590;2023-04-06T05:12:06;-1.17;84.04
70246;SHT30;57637;49.272;8.590;2023-04-06T05:14:31;-1.10;83.93
70246;SHT30;57637;49.272;8.590;2023-04-06T05:16:57;-0.87;84.01
70246;SHT30;57637;49.272;8.590;2023-04-06T05:19:23;-0.58;83.57
70246;SHT30;57637;49.272;8.590;2023-04-06T05:21:48;-0.25;83.00
70246;SHT30;57637;49.272;8.590;2023-04-06T05:24:14;-0.09;82.46
70246;SHT30;57637;49.272;8.590;2023-04-06T05:26:40;0.12;81.98
70246;SHT30;57637;49.272;8.590;2023-04-06T05:29:05;0.33;81.38
70246;SHT30;57637;49.272;8.590;2023-04-06T05:31:31;0.54;81.01
70246;SHT30;57637;49.272;8.590;2023-04-06T05:33:56;0.83;80.13
70246;SHT30;57637;49.272;8.590;2023-04-06T05:36:22;1.09;79.38
70246;SHT30;57637;49.272;8.590;2023-04-06T05:38:47;1.38;78.56
70246;SHT30;57637;49.272;8.590;2023-04-06T05:41:13;1.60;77.55
70246;SHT30;57637;49.272;8.590;2023-04-06T05:43:38;1.84;76.92
70246;SHT30;57637;49.272;8.590;2023-04-06T05:46:04;2.10;75.95
70246;SHT30;57637;49.272;8.590;2023-04-06T05:48:29;2.28;74.81
70246;SHT30;57637;49.272;8.590;2023-04-06T05:50:54;2.46;73.42
70246;SHT30;57637;49.272;8.590;2023-04-06T05:53:20;2.68;73.03
70246;SHT30;57637;49.272;8.590;2023-04-06T05:55:51;2.89;72.80
70246;SHT30;57637;49.272;8.590;2023-04-06T05:58:16;3.24;71.46
70246;SHT30;57637;49.272;8.590;2023-04-06T06:00:42;3.78;71.64
70246;SHT30;57637;49.272;8.590;2023-04-06T06:03:08;4.06;70.48
70246;SHT30;57637;49.272;8.590;2023-04-06T06:05:34;4.05;69.98
70246;SHT30;57637;49.272;8.590;2023-04-06T06:07:59;4.19;69.59
70246;SHT30;57637;49.272;8.590;2023-04-06T06:10:27;4.09;68.94
70246;SHT30;57637;49.272;8.590;2023-04-06T06:12:52;3.71;69.95
70246;SHT30;57637;49.272;8.590;2023-04-06T06:15:18;3.67;69.81
70246;SHT30;57637;49.272;8.590;2023-04-06T06:17:43;3.75;70.22
70246;SHT30;57637;49.272;8.590;2023-04-06T06:20:09;3.70;69.83
70246;SHT30;57637;49.272;8.590;2023-04-06T06:22:35;3.38;70.53
70246;SHT30;57637;49.272;8.590;2023-04-06T06:25:00;3.68;70.62
70246;SHT30;57637;49.272;8.590;2023-04-06T06:27:26;3.58;70.17
70246;SHT30;57637;49.272;8.590;2023-04-06T06:29:51;3.67;70.06
70246;SHT30;57637;49.272;8.590;2023-04-06T06:32:17;3.88;69.65
70246;SHT30;57637;49.272;8.590;2023-04-06T06:34:43;4.40;68.95
70246;SHT30;57637;49.272;8.590;2023-04-06T06:37:08;4.28;67.72
70246;SHT30;57637;49.272;8.590;2023-04-06T06:39:34;4.60;67.15
70246;SHT30;57637;49.272;8.590;2023-04-06T06:41:59;4.67;67.28
70246;SHT30;57637;49.272;8.590;2023-04-06T06:44:26;4.84;66.99
70246;SHT30;57637;49.272;8.590;2023-04-06T06:46:52;5.00;66.83
70246;SHT30;57637;49.272;8.590;2023-04-06T06:49:17;4.80;66.71
70246;SHT30;57637;49.272;8.590;2023-04-06T06:51:44;4.94;66.25
70246;SHT30;57637;49.272;8.590;2023-04-06T06:54:10;4.77;66.95
70246;SHT30;57637;49.272;8.590;2023-04-06T06:56:36;4.91;66.97
70246;SHT30;57637;49.272;8.590;2023-04-06T06:59:04;5.30;66.47
70246;SHT30;57637;49.272;8.590;2023-04-06T07:01:33;5.83;65.86
70246;SHT30;57637;49.272;8.590;2023-04-06T07:03:59;5.97;64.77
70246;SHT30;57637;49.272;8.590;2023-04-06T07:06:25;6.26;63.77
70246;SHT30;57637;49.272;8.590;2023-04-06T07:08:50;6.37;63.52
70246;SHT30;57637;49.272;8.590;2023-04-06T07:11:15;6.55;62.13
70246;SHT30;57637;49.272;8.590;2023-04-06T07:13:41;6.75;62.35
70246;SHT30;57637;49.272;8.590;2023-04-06T07:16:07;6.87;62.71
70246;SHT30;57637;49.272;8.590;2023-04-06T07:18:32;7.12;62.05
70246;SHT30;57637;49.272;8.590;2023-04-06T07:20:58;7.29;61.06
70246;SHT30;57637;49.272;8.590;2023-04-06T07:23:23;7.12;59.90
70246;SHT30;57637;49.272;8.590;2023-04-06T07:25:49;6.87;59.35
70246;SHT30;57637;49.272;8.590;2023-04-06T07:28:17;7.29;59.00
70246;SHT30;57637;49.272;8.590;2023-04-06T07:30:42;7.63;58.88
70246;SHT30;57637;49.272;8.590;2023-04-06T07:33:08;7.54;58.65
70246;SHT30;57637;49.272;8.590;2023-04-06T07:35:33;7.74;58.03
70246;SHT30;57637;49.272;8.590;2023-04-06T07:37:59;8.05;56.55
70246;SHT30;57637;49.272;8.590;2023-04-06T07:40:25;8.34;56.96
70246;SHT30;57637;49.272;8.590;2023-04-06T07:42:51;8.62;55.66
70246;SHT30;57637;49.272;8.590;2023-04-06T07:45:17;8.91;55.49
70246;SHT30;57637;49.272;8.590;2023-04-06T07:47:43;8.84;55.60
70246;SHT30;57637;49.272;8.590;2023-04-06T07:50:09;9.10;54.87
70246;SHT30;57637;49.272;8.590;2023-04-06T07:52:35;9.16;54.15
70246;SHT30;57637;49.272;8.590;2023-04-06T07:55:00;8.84;54.05
70246;SHT30;57637;49.272;8.590;2023-04-06T07:57:25;9.04;54.67
70246;SHT30;57637;49.272;8.590;2023-04-06T07:59:51;8.75;55.10
70246;SHT30;57637;49.272;8.590;2023-04-06T08:02:17;9.28;53.60
70246;SHT30;57637;49.272;8.590;2023-04-06T08:04:42;9.55;53.21
70246;SHT30;57637;49.272;8.590;2023-04-06T08:07:08;9.42;52.83
70246;SHT30;57637;49.272;8.590;2023-04-06T08:09:34;9.07;53.75
70246;SHT30;57637;49.272;8.590;2023-04-06T08:11:59;9.31;53.57
70246;SHT30;57637;49.272;8.590;2023-04-06T08:14:25;9.72;52.71
70246;SHT30;57637;49.272;8.590;2023-04-06T08:16:50;9.71;52.43
70246;SHT30;57637;49.272;8.590;2023-04-06T08:19:16;10.08;50.49
70246;SHT30;57637;49.272;8.590;2023-04-06T08:21:43;10.37;50.32
70246;SHT30;57637;49.272;8.590;2023-04-06T08:24:10;10.30;51.07
70246;SHT30;57637;49.272;8.590;2023-04-06T08:26:35;10.73;50.47
70246;SHT30;57637;49.272;8.590;2023-04-06T08:29:00;10.50;50.69
70246;SHT30;57637;49.272;8.590;2023-04-06T08:31:26;10.57;50.65
70246;SHT30;57637;49.272;8.590;2023-04-06T08:33:51;10.22;51.08
70246;SHT30;57637;49.272;8.590;2023-04-06T08:36:17;10.84;49.96
70246;SHT30;57637;49.272;8.590;2023-04-06T08:38:47;10.74;49.24
70246;SHT30;57637;49.272;8.590;2023-04-06T08:41:13;10.77;49.63
70246;SHT30;57637;49.272;8.590;2023-04-06T08:43:58;10.67;49.16
70246;SHT30;57637;49.272;8.590;2023-04-06T08:46:26;10.78;50.27
70246;SHT30;57637;49.272;8.590;2023-04-06T08:48:59;11.08;48.09
70246;SHT30;57637;49.272;8.590;2023-04-06T08:51:26;11.31;47.64
70246;SHT30;57637;49.272;8.590;2023-04-06T08:53:56;11.46;47.74
70246;SHT30;57637;49.272;8.590;2023-04-06T08:56:23;11.65;47.87
70246;SHT30;57637;49.272;8.590;2023-04-06T08:58:50;11.56;46.77
70246;SHT30;57637;49.272;8.590;2023-04-06T09:01:17;11.43;47.43
70246;SHT30;57637;49.272;8.590;2023-04-06T09:03:46;11.72;47.50
70246;SHT30;57637;49.272;8.590;2023-04-06T09:06:14;11.69;47.07
70246;SHT30;57637;49.272;8.590;2023-04-06T09:08:40;11.85;47.68
70246;SHT30;57637;49.272;8.590;2023-04-06T09:11:06;11.43;47.02
70246;SHT30;57637;49.272;8.590;2023-04-06T09:13:49;11.49;47.56
70246;SHT30;57637;49.272;8.590;2023-04-06T09:16:19;11.62;45.86
70246;SHT30;57637;49.272;8.590;2023-04-06T09:18:45;11.36;47.47
70246;SHT30;57637;49.272;8.590;2023-04-06T09:21:11;11.72;46.65
70246;SHT30;57637;49.272;8.590;2023-04-06T09:23:37;12.20;45.63
70246;SHT30;57637;49.272;8.590;2023-04-06T09:26:07;12.28;45.30
70246;SHT30;57637;49.272;8.590;2023-04-06T09:28:49;12.52;44.03
70246;SHT30;57637;49.272;8.590;2023-04-06T09:31:20;12.64;43.94
70246;SHT30;57637;49.272;8.590;2023-04-06T09:33:47;12.69;43.38
70246;SHT30;57637;49.272;8.590;2023-04-06T09:36:13;12.80;43.40
70246;SHT30;57637;49.272;8.590;2023-04-06T09:38:53;13.01;42.94
70246;SHT30;57637;49.272;8.590;2023-04-06T09:41:29;13.12;42.57
70246;SHT30;57637;49.272;8.590;2023-04-06T09:44:02;13.11;41.67
70246;SHT30;57637;49.272;8.590;2023-04-06T09:46:32;13.30;41.48
70246;SHT30;57637;49.272;8.590;2023-04-06T09:49:03;13.49;41.63
70246;SHT30;57637;49.272;8.590;2023-04-06T09:51:30;13.47;42.12
70246;SHT30;57637;49.272;8.590;2023-04-06T09:53:57;13.60;41.37
70246;SHT30;57637;49.272;8.590;2023-04-06T09:56:30;13.63;41.40
70246;SHT30;57637;49.272;8.590;2023-04-06T09:59:01;13.73;41.42
70246;SHT30;57637;49.272;8.590;2023-04-06T10:01:31;13.71;40.77
70246;SHT30;57637;49.272;8.590;2023-04-06T10:06:34;13.69;41.49
70246;SHT30;57637;49.272;8.590;2023-04-06T10:09:01;13.94;39.48
70246;SHT30;57637;49.272;8.590;2023-04-06T10:11:29;13.64;37.87
70246;SHT30;57637;49.272;8.590;2023-04-06T10:13:56;13.95;39.08
70246;SHT30;57637;49.272;8.590;2023-04-06T10:16:22;14.04;38.38
70246;SHT30;57637;49.272;8.590;2023-04-06T10:18:54;14.11;37.81
70246;SHT30;57637;49.272;8.590;2023-04-06T10:21:25;14.31;37.21
70246;SHT30;57637;49.272;8.590;2023-04-06T10:23:54;14.48;38.06
70246;SHT30;57637;49.272;8.590;2023-04-06T10:26:24;14.58;37.51
70246;SHT30;57637;49.272;8.590;2023-04-06T10:28:50;14.58;37.03
70246;SHT30;57637;49.272;8.590;2023-04-06T10:31:23;14.65;37.28
70246;SHT30;57637;49.272;8.590;2023-04-06T10:33:59;14.82;38.00
70246;SHT30;57637;49.272;8.590;2023-04-06T10:36:27;14.82;36.86
70246;SHT30;57637;49.272;8.590;2023-04-06T10:39:03;14.56;35.90
70246;SHT30;57637;49.272;8.590;2023-04-06T10:41:42;14.73;36.78
70246;SHT30;57637;49.272;8.590;2023-04-06T10:44:20;15.06;37.37
70246;SHT30;57637;49.272;8.590;2023-04-06T10:46:53;14.90;37.02
70246;SHT30;57637;49.272;8.590;2023-04-06T10:49:20;14.83;38.11
70246;SHT30;57637;49.272;8.590;2023-04-06T10:51:50;14.95;37.53
70246;SHT30;57637;49.272;8.590;2023-04-06T10:54:17;14.96;38.85
70246;SHT30;57637;49.272;8.590;2023-04-06T10:56:44;14.99;37.51
70246;SHT30;57637;49.272;8.590;2023-04-06T10:59:09;14.86;34.99
70246;SHT30;57637;49.272;8.590;2023-04-06T11:01:35;15.00;36.13
70246;SHT30;57637;49.272;8.590;2023-04-06T11:04:01;14.56;34.60
70246;SHT30;57637;49.272;8.590;2023-04-06T11:06:30;14.64;36.89
70246;SHT30;57637;49.272;8.590;2023-04-06T11:08:57;14.68;39.34
70246;SHT30;57637;49.272;8.590;2023-04-06T11:11:24;14.59;39.07
70246;SHT30;57637;49.272;8.590;2023-04-06T11:16:29;15.09;37.78
70246;SHT30;57637;49.272;8.590;2023-04-06T11:18:59;15.10;37.71
70246;SHT30;57637;49.272;8.590;2023-04-06T11:21:52;15.44;36.99
70246;SHT30;57637;49.272;8.590;2023-04-06T11:24:17;15.26;37.08
70246;SHT30;57637;49.272;8.590;2023-04-06T11:29:17;15.02;37.56
70246;SHT30;57637;49.272;8.590;2023-04-06T11:31:51;15.48;36.51
70246;SHT30;57637;49.272;8.590;2023-04-06T11:34:19;15.80;35.34
70246;SHT30;57637;49.272;8.590;2023-04-06T11:36:46;16.15;36.24
70246;SHT30;57637;49.272;8.590;2023-04-06T11:39:13;16.15;35.83
70246;SHT30;57637;49.272;8.590;2023-04-06T11:41:47;15.50;33.48
70246;SHT30;57637;49.272;8.590;2023-04-06T11:44:13;15.75;35.01
70246;SHT30;57637;49.272;8.590;2023-04-06T11:46:39;15.85;35.43
70246;SHT30;57637;49.272;8.590;2023-04-06T11:49:04;15.75;35.90
70246;SHT30;57637;49.272;8.590;2023-04-06T11:51:30;15.85;34.51
70246;SHT30;57637;49.272;8.590;2023-04-06T11:54:00;16.01;35.25
70246;SHT30;57637;49.272;8.590;2023-04-06T11:56:29;15.92;34.97
70246;SHT30;57637;49.272;8.590;2023-04-06T11:58:55;16.21;34.36
70246;SHT30;57637;49.272;8.590;2023-04-06T12:01:23;16.12;34.38
70246;SHT30;57637;49.272;8.590;2023-04-06T12:03:49;16.26;34.51
70246;SHT30;57637;49.272;8.590;2023-04-06T12:06:16;16.53;34.80
70246;SHT30;57637;49.272;8.590;2023-04-06T12:08:42;16.57;33.35
70246;SHT30;57637;49.272;8.590;2023-04-06T12:11:07;16.51;34.13
70246;SHT30;57637;49.272;8.590;2023-04-06T12:13:33;16.30;34.16
70246;SHT30;57637;49.272;8.590;2023-04-06T12:15:58;16.57;33.24
70246;SHT30;57637;49.272;8.590;2023-04-06T12:18:23;16.62;34.05
70246;SHT30;57637;49.272;8.590;2023-04-06T12:20:50;16.76;33.82
70246;SHT30;57637;49.272;8.590;2023-04-06T12:23:16;16.76;33.10
70246;SHT30;57637;49.272;8.590;2023-04-06T12:25:42;16.84;32.19
70246;SHT30;57637;49.272;8.590;2023-04-06T12:28:08;17.07;32.71
70246;SHT30;57637;49.272;8.590;2023-04-06T12:30:36;17.03;32.30
70246;SHT30;57637;49.272;8.590;2023-04-06T12:33:02;16.91;33.40
70246;SHT30;57637;49.272;8.590;2023-04-06T12:35:27;16.84;32.94
70246;SHT30;57637;49.272;8.590;2023-04-06T12:37:53;16.79;33.50
70246;SHT30;57637;49.272;8.590;2023-04-06T12:40:19;17.31;33.17
70246;SHT30;57637;49.272;8.590;2023-04-06T12:42:45;17.00;33.11
70246;SHT30;57637;49.272;8.590;2023-04-06T12:45:11;17.17;32.52
70246;SHT30;57637;49.272;8.590;2023-04-06T12:47:37;17.37;32.18
70246;SHT30;57637;49.272;8.590;2023-04-06T12:50:03;17.06;32.72
70246;SHT30;57637;49.272;8.590;2023-04-06T12:52:31;16.99;31.74
70246;SHT30;57637;49.272;8.590;2023-04-06T12:55:00;17.17;32.99
70246;SHT30;57637;49.272;8.590;2023-04-06T12:57:25;16.80;31.00
70246;SHT30;57637;49.272;8.590;2023-04-06T12:59:51;16.57;32.95
70246;SHT30;57637;49.272;8.590;2023-04-06T13:02:17;16.26;30.43
70246;SHT30;57637;49.272;8.590;2023-04-06T13:04:45;16.13;31.85
70246;SHT30;57637;49.272;8.590;2023-04-06T13:07:10;16.49;32.13
70246;SHT30;57637;49.272;8.590;2023-04-06T13:09:35;16.86;31.07
70246;SHT30;57637;49.272;8.590;2023-04-06T13:12:01;17.06;29.81
70246;SHT30;57637;49.272;8.590;2023-04-06T13:14:27;17.20;29.83
70246;SHT30;57637;49.272;8.590;2023-04-06T13:16:52;17.24;29.60
70246;SHT30;57637;49.272;8.590;2023-04-06T13:19:18;17.20;29.91
70246;SHT30;57637;49.272;8.590;2023-04-06T13:21:43;16.97;30.90
70246;SHT30;57637;49.272;8.590;2023-04-06T13:24:09;16.67;29.69
70246;SHT30;57637;49.272;8.590;2023-04-06T13:26:35;16.94;31.79
70246;SHT30;57637;49.272;8.590;2023-04-06T13:29:01;16.99;31.64
70246;SHT30;57637;49.272;8.590;2023-04-06T13:31:27;16.97;30.35
70246;SHT30;57637;49.272;8.590;2023-04-06T13:33:53;17.13;29.66
70246;SHT30;57637;49.272;8.590;2023-04-06T13:36:18;17.10;29.00
70246;SHT30;57637;49.272;8.590;2023-04-06T13:38:44;16.74;29.54
70246;SHT30;57637;49.272;8.590;2023-04-06T13:41:16;16.77;30.74
70246;SHT30;57637;49.272;8.590;2023-04-06T13:43:43;16.42;31.23
70246;SHT30;57637;49.272;8.590;2023-04-06T13:46:08;16.41;30.40
70246;SHT30;57637;49.272;8.590;2023-04-06T13:48:34;15.94;32.07
70246;SHT30;57637;49.272;8.590;2023-04-06T13:51:07;16.00;31.58
70246;SHT30;57637;49.272;8.590;2023-04-06T13:53:39;15.91;32.05
70246;SHT30;57637;49.272;8.590;2023-04-06T13:56:05;15.74;33.23
70246;SHT30;57637;49.272;8.590;2023-04-06T13:58:32;15.87;33.62
70246;SHT30;57637;49.272;8.590;2023-04-06T14:01:07;15.95;32.67
70246;SHT30;57637;49.272;8.590;2023-04-06T14:03:34;16.18;32.30
70246;SHT30;57637;49.272;8.590;2023-04-06T14:06:00;16.23;32.48
70246;SHT30;57637;49.272;8.590;2023-04-06T14:08:25;16.08;33.00
70246;SHT30;57637;49.272;8.590;2023-04-06T14:10:51;15.98;32.45
70246;SHT30;57637;49.272;8.590;2023-04-06T14:13:16;16.11;32.75
70246;SHT30;57637;49.272;8.590;2023-04-06T14:15:42;16.25;33.14
70246;SHT30;57637;49.272;8.590;2023-04-06T14:18:08;16.29;32.99
70246;SHT30;57637;49.272;8.590;2023-04-06T14:20:33;16.25;32.77
70246;SHT30;57637;49.272;8.590;2023-04-06T14:23:00;16.13;32.78
70246;SHT30;57637;49.272;8.590;2023-04-06T14:25:26;16.38;33.06
70246;SHT30;57637;49.272;8.590;2023-04-06T14:27:51;16.51;32.45
70246;SHT30;57637;49.272;8.590;2023-04-06T14:30:17;16.55;31.87
70246;SHT30;57637;49.272;8.590;2023-04-06T14:32:42;16.53;31.78
70246;SHT30;57637;49.272;8.590;2023-04-06T14:35:07;16.33;31.64
70246;SHT30;57637;49.272;8.590;2023-04-06T14:37:33;16.36;31.74
70246;SHT30;57637;49.272;8.590;2023-04-06T14:39:59;16.34;32.29
70246;SHT30;57637;49.272;8.590;2023-04-06T14:42:24;16.28;32.32
70246;SHT30;57637;49.272;8.590;2023-04-06T14:44:50;16.04;32.15
70246;SHT30;57637;49.272;8.590;2023-04-06T14:47:15;16.04;32.36
70246;SHT30;57637;49.272;8.590;2023-04-06T14:49:45;16.13;32.59
70246;SHT30;57637;49.272;8.590;2023-04-06T14:52:12;16.28;31.39
70246;SHT30;57637;49.272;8.590;2023-04-06T14:54:38;16.12;30.31
70246;SHT30;57637;49.272;8.590;2023-04-06T14:57:03;16.30;30.45
70246;SHT30;57637;49.272;8.590;2023-04-06T14:59:28;16.18;30.97
70246;SHT30;57637;49.272;8.590;2023-04-06T15:01:54;16.12;31.21
70246;SHT30;57637;49.272;8.590;2023-04-06T15:04:19;15.98;31.58
70246;SHT30;57637;49.272;8.590;2023-04-06T15:06:45;16.13;32.11
70246;SHT30;57637;49.272;8.590;2023-04-06T15:09:10;16.02;31.52
70246;SHT30;57637;49.272;8.590;2023-04-06T15:11:55;15.80;32.04
70246;SHT30;57637;49.272;8.590;2023-04-06T15:14:20;15.68;31.42
70246;SHT30;57637;49.272;8.590;2023-04-06T15:16:46;15.80;30.86
70246;SHT30;57637;49.272;8.590;2023-04-06T15:19:11;15.80;31.92
70246;SHT30;57637;49.272;8.590;2023-04-06T15:21:36;15.67;31.14
70246;SHT30;57637;49.272;8.590;2023-04-06T15:24:02;15.50;31.57
70246;SHT30;57637;49.272;8.590;2023-04-06T15:26:31;15.44;31.37
70246;SHT30;57637;49.272;8.590;2023-04-06T15:28:56;15.51;31.23
70246;SHT30;57637;49.272;8.590;2023-04-06T15:31:21;15.51;32.08
70246;SHT30;57637;49.272;8.590;2023-04-06T15:33:47;15.33;31.72
70246;SHT30;57637;49.272;8.590;2023-04-06T15:36:24;15.29;31.89
70246;SHT30;57637;49.272;8.590;2023-04-06T15:38:53;15.24;32.44